DGO weather

General Guadalupe Victoria International Airport
Durango, Durango, Mexico

Public forecast

Using degrees Celsius for public forecast. Weather courtesy of forecast.io.

Current aviation weather report (METAR) for General Guadalupe Victoria International Airport

Retrieved 2020/07/13 17:40 UTC (45 minutes ago):

MMDO 131740Z 00000KT 14SM SCT025 SCT200 28/10 A3029 RMK SLP081 57006 900 8/104

Aviation forecast (TAF) for General Guadalupe Victoria International Airport

Retrieved 2020/07/13 18:06 UTC (19 minutes ago):

TAF MMDO 131659Z 1318/1418 06010KT P6SM SCT020 SCT120 FM140000 10010KT P6SM BKN030CB OVC120 TEMPO 1400/1404 5SM TSRA FM140600 00000KT 5SM HZ OVC030 FM141500 00000KT 5SM HZ SCT030 SCT230